createdAt,value
2023-01-17T00:02:12.652Z,94499.94
2023-01-17T00:04:57.813Z,94503.94
2023-01-17T00:07:43.484Z,94504.75
2023-01-17T00:10:23.314Z,94503.94
2023-01-17T00:12:52.809Z,94526.56
2023-01-17T00:15:20.047Z,94524.75
2023-01-17T00:17:47.352Z,94532.44
2023-01-17T00:20:33.420Z,94529.56
2023-01-17T00:23:18.536Z,94519.41
2023-01-17T00:26:03.307Z,94525.81
2023-01-17T00:28:32.959Z,94514.91
2023-01-17T00:30:59.735Z,94522.63
2023-01-17T00:33:26.408Z,94522.88
2023-01-17T00:35:53.828Z,94520.97
2023-01-17T00:38:22.536Z,94532.47
2023-01-17T00:40:49.502Z,94515.72
2023-01-17T00:43:37.790Z,94528.19
2023-01-17T00:46:23.850Z,94534.03
2023-01-17T00:49:09.234Z,94535.59
2023-01-17T00:51:55.191Z,94538.53
2023-01-17T00:54:40.546Z,94538.84
2023-01-17T00:57:26.373Z,94556.34
2023-01-17T01:00:11.805Z,94560.06
2023-01-17T01:02:57.135Z,94565.91
2023-01-17T01:05:42.679Z,94570.19
2023-01-17T01:08:45.943Z,94584.78
2023-01-17T01:11:34.419Z,94583.72
2023-01-17T01:14:19.866Z,94585.78
2023-01-17T01:17:05.243Z,94587.38
2023-01-17T01:19:50.127Z,94593.47
2023-01-17T01:22:35.628Z,94589.28
2023-01-17T01:25:20.880Z,94587.72
2023-01-17T01:28:05.784Z,94581.06
2023-01-17T01:30:50.502Z,94584.41
2023-01-17T01:33:19.696Z,94582.31
2023-01-17T01:35:50.983Z,94579.91
2023-01-17T01:38:19.161Z,94587.88
2023-01-17T01:40:48.564Z,94585.66
2023-01-17T01:43:17.987Z,94595.50
2023-01-17T01:45:50.614Z,94590.25
2023-01-17T01:48:32.880Z,94595.13
2023-01-17T01:51:01.292Z,94602.06
2023-01-17T01:53:28.697Z,94606.09
2023-01-17T01:55:55.593Z,94601.28
2023-01-17T01:58:27.438Z,94596.44
2023-01-17T02:00:54.126Z,94601.72
2023-01-17T02:03:29.507Z,94606.25
2023-01-17T02:06:02.340Z,94600.81
2023-01-17T02:08:29.163Z,94605.91
2023-01-17T02:10:56.396Z,94602.97
2023-01-17T02:13:22.907Z,94600.72
2023-01-17T02:16:13.709Z,94597.09
2023-01-17T02:18:55.324Z,94595.72
2023-01-17T02:21:42.961Z,94595.75
2023-01-17T02:24:27.593Z,94584.84
2023-01-17T02:26:59.628Z,94594.56
2023-01-17T02:29:25.921Z,94590.63
2023-01-17T02:32:02.107Z,94595.19
2023-01-17T02:34:39.729Z,94591.16
2023-01-17T02:37:23.261Z,94593.25
2023-01-17T02:40:07.047Z,94590.16
2023-01-17T02:42:46.763Z,94589.28
2023-01-17T02:45:18.563Z,94592.53
2023-01-17T02:47:45.439Z,94588.06
2023-01-17T02:50:17.608Z,94591.13
2023-01-17T02:53:05.843Z,94587.22
2023-01-17T02:55:54.137Z,94587.22
2023-01-17T02:58:39.700Z,94590.91
2023-01-17T03:01:33.764Z,94584.78
2023-01-17T03:04:06.292Z,94579.78
2023-01-17T03:06:43.998Z,94590.69
2023-01-17T03:09:11.962Z,94587.59
2023-01-17T03:11:38.398Z,94589.47
2023-01-17T03:14:04.912Z,94594.88
2023-01-17T03:16:33.301Z,94597.16
2023-01-17T03:19:00.102Z,94599.06
2023-01-17T03:21:26.568Z,94602.44
2023-01-17T03:23:53.062Z,94611.94
2023-01-17T03:26:19.535Z,94612.34
2023-01-17T03:28:46.013Z,94615.69
2023-01-17T03:31:16.820Z,94624.56
2023-01-17T03:33:43.717Z,94619.34
2023-01-17T03:36:10.272Z,94614.28
2023-01-17T03:38:37.407Z,94622.53
2023-01-17T03:41:05.060Z,94623.06
2023-01-17T03:43:31.668Z,94616.97
2023-01-17T03:46:20.712Z,94611.38
2023-01-17T03:48:47.683Z,94611.31
2023-01-17T03:51:14.170Z,94605.97
2023-01-17T03:53:40.610Z,94598.88
2023-01-17T03:56:07.550Z,94600.69
2023-01-17T03:58:34.074Z,94596.13
2023-01-17T04:01:00.638Z,94601.66
2023-01-17T04:03:27.187Z,94603.28
2023-01-17T04:05:53.593Z,94601.44
2023-01-17T04:08:20.025Z,94598.53
2023-01-17T04:10:46.502Z,94593.78
2023-01-17T04:13:13.684Z,94598.59
2023-01-17T04:15:40.597Z,94601.75
2023-01-17T04:18:07.466Z,94606.91
2023-01-17T04:20:39.098Z,94607.34
2023-01-17T04:23:06.853Z,94605.34
2023-01-17T04:25:33.710Z,94598.78
2023-01-17T04:28:01.362Z,94595.78
2023-01-17T04:30:28.908Z,94592.63
2023-01-17T04:32:55.577Z,94594.50
2023-01-17T04:35:22.476Z,94599.25
2023-01-17T04:37:48.932Z,94608.38
2023-01-17T04:40:15.548Z,94610.03
2023-01-17T04:42:44.846Z,94607.25
2023-01-17T04:45:12.155Z,94615.88
2023-01-17T04:47:38.609Z,94613.69
2023-01-17T04:50:05.577Z,94615.25
2023-01-17T04:52:32.079Z,94614.88
2023-01-17T04:54:58.602Z,94611.91
2023-01-17T04:57:25.183Z,94603.09
2023-01-17T04:59:53.493Z,94607.56
2023-01-17T05:02:20.492Z,94613.94
2023-01-17T05:04:47.173Z,94612.88
2023-01-17T05:07:13.866Z,94612.88
2023-01-17T05:09:40.428Z,94612.09
2023-01-17T05:12:06.981Z,94610.50
2023-01-17T05:14:34.335Z,94611.59
2023-01-17T05:17:02.983Z,94601.06
2023-01-17T05:19:29.502Z,94601.53
2023-01-17T05:21:55.967Z,94599.63
2023-01-17T05:24:22.400Z,94597.13
2023-01-17T05:26:54.518Z,94601.03
2023-01-17T05:29:21.680Z,94595.31
2023-01-17T05:31:48.262Z,94600.44
2023-01-17T05:34:14.685Z,94606.78
2023-01-17T05:36:41.212Z,94605.19
2023-01-17T05:39:07.743Z,94608.28
2023-01-17T05:41:34.208Z,94608.19
2023-01-17T05:44:00.671Z,94591.25
2023-01-17T05:46:27.196Z,94592.44
2023-01-17T05:48:53.625Z,94589.13
2023-01-17T05:51:20.103Z,94584.56
2023-01-17T05:53:46.520Z,94576.31
2023-01-17T05:56:13.061Z,94579.28
2023-01-17T05:58:40.068Z,94577.56
2023-01-17T06:01:06.591Z,94572.31
2023-01-17T06:03:33.125Z,94571.31
2023-01-17T06:05:59.558Z,94570.16
2023-01-17T06:08:26.013Z,94566.41
2023-01-17T06:10:52.550Z,94564.63
2023-01-17T06:13:21.859Z,94563.91
2023-01-17T06:15:48.747Z,94564.25
2023-01-17T06:18:17.508Z,94556.63
2023-01-17T06:20:44.432Z,94555.66
2023-01-17T06:23:13.371Z,94552.06
2023-01-17T06:25:44.940Z,94556.56
2023-01-17T06:28:12.991Z,94550.41
2023-01-17T06:30:39.513Z,94548.53
2023-01-17T06:33:06.125Z,94553.63
2023-01-17T06:35:33.065Z,94562.31
2023-01-17T06:38:00.434Z,94559.41
2023-01-17T06:40:28.578Z,94568.34
2023-01-17T06:42:59.607Z,94556.25
2023-01-17T06:45:26.040Z,94556.91
2023-01-17T06:47:52.515Z,94548.16
2023-01-17T06:50:19.059Z,94548.81
2023-01-17T06:52:55.889Z,94556.03
2023-01-17T06:55:22.381Z,94555.81
2023-01-17T06:57:50.055Z,94556.75
2023-01-17T07:00:17.285Z,94554.19
2023-01-17T07:02:47.696Z,94552.03
2023-01-17T07:05:14.161Z,94548.25
2023-01-17T07:07:40.663Z,94549.53
2023-01-17T07:10:07.443Z,94546.38
2023-01-17T07:12:33.960Z,94537.16
2023-01-17T07:15:00.426Z,94543.66
2023-01-17T07:17:26.910Z,94533.81
2023-01-17T07:19:53.445Z,94540.06
2023-01-17T07:22:19.907Z,94541.53
2023-01-17T07:24:46.393Z,94538.41
2023-01-17T07:27:12.822Z,94541.19
2023-01-17T07:29:39.232Z,94542.59
2023-01-17T07:32:05.679Z,94540.28
2023-01-17T07:34:32.119Z,94534.59
2023-01-17T07:36:58.588Z,94530.56
2023-01-17T07:39:25.190Z,94528.06
2023-01-17T07:41:51.702Z,94524.13
2023-01-17T07:44:19.171Z,94521.91
2023-01-17T07:46:45.607Z,94517.41
2023-01-17T07:49:12.191Z,94518.25
2023-01-17T07:51:38.639Z,94522.53
2023-01-17T07:54:05.138Z,94517.72
2023-01-17T07:56:34.471Z,94520.53
2023-01-17T07:59:01.558Z,94521.28
2023-01-17T08:01:28.205Z,94512.41
2023-01-17T08:03:55.070Z,94520.75
2023-01-17T08:06:24.453Z,94520.28
2023-01-17T08:08:52.110Z,94517.88
2023-01-17T08:11:18.607Z,94522.19
2023-01-17T08:13:45.086Z,94526.66
2023-01-17T08:16:12.630Z,94519.06
2023-01-17T08:18:39.430Z,94519.66
2023-01-17T08:21:13.565Z,94522.06
2023-01-17T08:23:40.023Z,94522.78
2023-01-17T08:26:06.504Z,94517.31
2023-01-17T08:28:33.023Z,94518.69
2023-01-17T08:31:06.414Z,94511.56
2023-01-17T08:33:32.897Z,94512.97
2023-01-17T08:35:59.315Z,94512.69
2023-01-17T08:38:25.790Z,94516.81
2023-01-17T08:40:52.207Z,94517.00
2023-01-17T08:43:19.663Z,94504.47
2023-01-17T08:45:48.233Z,94501.66
2023-01-17T08:48:15.229Z,94499.03
2023-01-17T08:50:41.821Z,94499.44
2023-01-17T08:53:08.373Z,94505.41
2023-01-17T08:55:39.420Z,94498.91
2023-01-17T08:58:05.893Z,94500.88
2023-01-17T09:00:32.763Z,94498.78
2023-01-17T09:02:59.514Z,94497.56
2023-01-17T09:05:25.946Z,94495.53
2023-01-17T09:07:52.365Z,94499.03
2023-01-17T09:10:18.906Z,94495.13
2023-01-17T09:12:45.398Z,94492.78
2023-01-17T09:15:14.615Z,94497.63
2023-01-17T09:17:41.074Z,94494.97
2023-01-17T09:20:08.379Z,94493.41
2023-01-17T09:22:36.035Z,94485.16
2023-01-17T09:25:02.478Z,94487.31
2023-01-17T09:27:28.891Z,94483.59
2023-01-17T09:29:55.297Z,94481.47
2023-01-17T09:32:21.761Z,94470.31
2023-01-17T09:34:48.243Z,94467.34
2023-01-17T09:37:15.011Z,94457.00
2023-01-17T09:39:41.496Z,94453.00
2023-01-17T09:42:29.717Z,94466.38
2023-01-17T09:44:56.509Z,94479.94
2023-01-17T09:47:34.421Z,94469.81
2023-01-17T09:50:08.300Z,94473.00
2023-01-17T09:52:34.891Z,94466.38
2023-01-17T09:55:01.859Z,94467.97
2023-01-17T09:57:38.367Z,94466.94
2023-01-17T10:00:42.500Z,94460.28
2023-01-17T10:03:25.814Z,94454.13
2023-01-17T10:06:01.560Z,94464.03
2023-01-17T10:08:57.377Z,94459.75
2023-01-17T10:11:42.293Z,94445.59
2023-01-17T10:14:41.027Z,94445.63
2023-01-17T10:17:28.866Z,94442.94
2023-01-17T10:20:03.868Z,94441.06
2023-01-17T10:23:01.181Z,94444.53
2023-01-17T10:25:27.583Z,94448.00
2023-01-17T10:27:59.002Z,94454.16
2023-01-17T10:30:38.869Z,94452.53
2023-01-17T10:33:19.233Z,94450.38
2023-01-17T10:36:03.654Z,94451.16
2023-01-17T10:38:36.525Z,94442.06
2023-01-17T10:41:14.645Z,94437.28
2023-01-17T10:43:47.766Z,94434.06
2023-01-17T10:46:18.874Z,94432.75
2023-01-17T10:48:50.602Z,94430.56
2023-01-17T10:51:43.699Z,94429.22
2023-01-17T10:54:32.937Z,94428.69
2023-01-17T10:56:59.486Z,94422.78
2023-01-17T10:59:33.409Z,94423.53
2023-01-17T11:02:07.290Z,94431.50
2023-01-17T11:04:39.975Z,94425.06
2023-01-17T11:07:12.749Z,94428.22
2023-01-17T11:09:44.693Z,94430.31
2023-01-17T11:12:17.606Z,94420.38
2023-01-17T11:14:58.600Z,94416.69
2023-01-17T11:17:27.456Z,94398.97
2023-01-17T11:20:05.819Z,94399.16
2023-01-17T11:22:32.592Z,94398.34
2023-01-17T11:25:00.089Z,94396.53
2023-01-17T11:27:32.556Z,94395.84
2023-01-17T11:30:07.436Z,94385.88
2023-01-17T11:32:34.489Z,94388.72
2023-01-17T11:35:13.188Z,94371.47
2023-01-17T11:37:48.700Z,94368.22
2023-01-17T11:40:15.119Z,94369.41
2023-01-17T11:42:41.569Z,94376.09
2023-01-17T11:45:29.340Z,94370.19
2023-01-17T11:48:17.138Z,94381.28
2023-01-17T11:50:59.982Z,94369.97
2023-01-17T11:53:29.286Z,94343.78
2023-01-17T11:56:09.302Z,94332.34
2023-01-17T11:58:38.586Z,94329.66
2023-01-17T12:01:14.029Z,94332.94
2023-01-17T12:03:46.520Z,94327.13
2023-01-17T12:06:27.063Z,94326.78
2023-01-17T12:09:24.762Z,94307.75
2023-01-17T12:12:48.924Z,94302.25
2023-01-17T12:15:33.360Z,94294.94
2023-01-17T12:18:28.587Z,94290.75
2023-01-17T12:21:16.374Z,94285.53
2023-01-17T12:23:42.901Z,94278.19
2023-01-17T12:26:23.861Z,94273.78
2023-01-17T12:29:05.887Z,94280.59
2023-01-17T12:31:41.634Z,94272.25
2023-01-17T12:34:29.573Z,94277.69
2023-01-17T12:37:05.192Z,94268.84
2023-01-17T12:39:43.437Z,94269.69
2023-01-17T12:42:20.423Z,94258.16
2023-01-17T12:45:11.845Z,94261.28
2023-01-17T12:47:44.497Z,94244.22
2023-01-17T12:50:26.891Z,94252.13
2023-01-17T12:52:59.327Z,94245.53
2023-01-17T12:55:54.407Z,94243.63
2023-01-17T12:58:29.223Z,94233.78
2023-01-17T13:01:29.499Z,94230.72
2023-01-17T13:04:11.081Z,94225.19
2023-01-17T13:06:52.541Z,94223.63
2023-01-17T13:09:22.536Z,94212.66
2023-01-17T13:11:57.619Z,94226.91
2023-01-17T13:14:24.795Z,94222.88
2023-01-17T13:17:06.181Z,94226.63
2023-01-17T13:19:54.757Z,94224.56
2023-01-17T13:22:24.015Z,94223.97
2023-01-17T13:25:08.118Z,94216.44
2023-01-17T13:28:00.514Z,94218.63
2023-01-17T13:31:00.775Z,94206.91
2023-01-17T13:33:47.146Z,94205.56
2023-01-17T13:36:25.319Z,94212.47
2023-01-17T13:39:13.421Z,94220.97
2023-01-17T13:41:46.022Z,94211.19
2023-01-17T13:44:24.151Z,94220.31
2023-01-17T13:47:29.593Z,94220.31
2023-01-17T13:49:59.280Z,94221.34
2023-01-17T13:52:25.661Z,94219.81
2023-01-17T13:54:52.018Z,94226.66
2023-01-17T13:57:32.768Z,94220.19
2023-01-17T14:00:15.856Z,94220.19
2023-01-17T14:02:43.563Z,94212.94
2023-01-17T14:05:21.112Z,94218.41
2023-01-17T14:08:00.795Z,94218.41
2023-01-17T14:10:38.637Z,94230.41
2023-01-17T14:13:25.387Z,94224.50
2023-01-17T14:15:52.019Z,94228.16
2023-01-17T14:18:37.465Z,94228.25
2023-01-17T14:21:13.171Z,94227.44
2023-01-17T14:24:03.663Z,94230.72
2023-01-17T14:26:45.172Z,94231.00
2023-01-17T14:29:45.868Z,94230.75
2023-01-17T14:32:19.053Z,94226.28
2023-01-17T14:34:47.651Z,94225.78
2023-01-17T14:37:20.065Z,94227.59
2023-01-17T14:39:49.068Z,94225.28
2023-01-17T14:42:20.220Z,94221.53
2023-01-17T14:44:56.475Z,94222.81
2023-01-17T14:47:23.012Z,94215.63
2023-01-17T14:50:09.651Z,94217.00
2023-01-17T14:52:36.205Z,94223.06
2023-01-17T14:55:15.332Z,94221.03
2023-01-17T14:57:42.844Z,94217.34
2023-01-17T15:00:13.186Z,94213.00
2023-01-17T15:02:42.562Z,94210.94
2023-01-17T15:05:13.760Z,94218.63
2023-01-17T15:07:41.682Z,94214.94
2023-01-17T15:10:13.399Z,94223.69
2023-01-17T15:12:39.876Z,94216.25
2023-01-17T15:15:30.225Z,94219.25
2023-01-17T15:18:09.737Z,94216.31
2023-01-17T15:20:38.138Z,94223.00
2023-01-17T15:23:05.150Z,94217.16
2023-01-17T15:25:32.248Z,94220.88
2023-01-17T15:27:59.044Z,94212.38
2023-01-17T15:30:25.734Z,94212.38
2023-01-17T15:32:52.958Z,94214.03
2023-01-17T15:35:20.570Z,94212.66
2023-01-17T15:37:52.585Z,94212.97
2023-01-17T15:40:21.926Z,94211.56
2023-01-17T15:43:05.038Z,94212.66
2023-01-17T15:45:33.138Z,94213.22
2023-01-17T15:48:33.442Z,94207.09
2023-01-17T15:51:00.165Z,94201.53
2023-01-17T15:53:32.436Z,94203.25
2023-01-17T15:56:00.123Z,94203.84
2023-01-17T15:58:30.185Z,94212.41
2023-01-17T16:00:57.029Z,94212.88
2023-01-17T16:03:25.135Z,94204.44
2023-01-17T16:05:53.824Z,94219.09
2023-01-17T16:08:38.664Z,94213.50
2023-01-17T16:11:07.414Z,94219.91
2023-01-17T16:13:38.529Z,94225.50
2023-01-17T16:16:13.528Z,94218.88
2023-01-17T16:18:40.707Z,94222.56
2023-01-17T16:21:26.527Z,94226.31
2023-01-17T16:23:53.729Z,94225.25
2023-01-17T16:26:21.004Z,94223.13
2023-01-17T16:28:48.051Z,94224.72
2023-01-17T16:31:15.670Z,94232.72
2023-01-17T16:33:42.407Z,94221.25
2023-01-17T16:36:16.462Z,94225.78
2023-01-17T16:38:45.136Z,94227.38
2023-01-17T16:41:11.749Z,94226.31
2023-01-17T16:43:38.311Z,94224.69
2023-01-17T16:46:05.888Z,94228.69
2023-01-17T16:48:32.416Z,94220.69
2023-01-17T16:50:59.308Z,94223.06
2023-01-17T16:53:28.092Z,94229.44
2023-01-17T16:55:58.035Z,94227.03
2023-01-17T16:58:24.830Z,94231.06
2023-01-17T17:00:51.377Z,94231.06
2023-01-17T17:03:19.721Z,94230.50
2023-01-17T17:05:55.018Z,94222.78
2023-01-17T17:08:21.512Z,94235.81
2023-01-17T17:10:47.932Z,94228.38
2023-01-17T17:13:14.453Z,94227.03
2023-01-17T17:15:44.723Z,94231.81
2023-01-17T17:18:15.802Z,94236.09
2023-01-17T17:20:43.489Z,94243.28
2023-01-17T17:23:10.325Z,94241.94
2023-01-17T17:25:37.460Z,94245.66
2023-01-17T17:28:05.840Z,94239.56
2023-01-17T17:30:33.276Z,94243.03
2023-01-17T17:32:59.790Z,94250.00
2023-01-17T17:35:26.713Z,94262.53
2023-01-17T17:37:53.602Z,94262.00
2023-01-17T17:40:20.245Z,94266.50
2023-01-17T17:42:46.668Z,94269.72
2023-01-17T17:45:13.206Z,94269.44
2023-01-17T17:47:39.648Z,94278.78
2023-01-17T17:50:06.623Z,94284.91
2023-01-17T17:52:33.093Z,94294.75
2023-01-17T17:54:59.583Z,94289.69
2023-01-17T17:57:26.042Z,94279.84
2023-01-17T17:59:55.944Z,94284.06
2023-01-17T18:02:22.685Z,94290.16
2023-01-17T18:04:49.192Z,94297.31
2023-01-17T18:07:15.693Z,94306.78
2023-01-17T18:09:42.150Z,94310.84
2023-01-17T18:12:08.663Z,94310.28
2023-01-17T18:14:35.412Z,94314.03
2023-01-17T18:17:01.914Z,94314.44
2023-01-17T18:19:28.758Z,94312.34
2023-01-17T18:21:55.305Z,94308.59
2023-01-17T18:24:24.088Z,94317.38
2023-01-17T18:26:58.792Z,94327.25
2023-01-17T18:29:26.976Z,94322.16
2023-01-17T18:31:54.228Z,94322.09
2023-01-17T18:34:24.049Z,94319.94
2023-01-17T18:36:51.859Z,94327.66
2023-01-17T18:39:20.530Z,94327.53
2023-01-17T18:41:47.020Z,94328.63
2023-01-17T18:44:13.414Z,94328.69
2023-01-17T18:46:40.328Z,94331.56
2023-01-17T18:49:07.200Z,94333.22
2023-01-17T18:51:34.464Z,94329.22
2023-01-17T18:54:05.353Z,94332.63
2023-01-17T18:56:36.128Z,94331.53
2023-01-17T18:59:05.828Z,94335.19
2023-01-17T19:01:35.798Z,94331.56
2023-01-17T19:04:04.829Z,94328.06
2023-01-17T19:06:37.405Z,94330.75
2023-01-17T19:09:05.603Z,94329.38
2023-01-17T19:11:32.065Z,94337.47
2023-01-17T19:13:58.550Z,94336.72
2023-01-17T19:16:31.143Z,94328.53
2023-01-17T19:19:01.918Z,94329.59
2023-01-17T19:21:28.915Z,94341.94
2023-01-17T19:23:56.345Z,94336.91
2023-01-17T19:26:25.021Z,94339.84
2023-01-17T19:28:51.622Z,94340.09
2023-01-17T19:31:21.167Z,94343.81
2023-01-17T19:33:48.917Z,94349.34
2023-01-17T19:36:18.882Z,94343.53
2023-01-17T19:38:58.626Z,94348.84
2023-01-17T19:41:30.627Z,94349.84
2023-01-17T19:43:58.783Z,94337.56
2023-01-17T19:46:27.252Z,94345.53
2023-01-17T19:48:55.048Z,94346.59
2023-01-17T19:51:22.077Z,94349.03
2023-01-17T19:53:48.515Z,94344.78
2023-01-17T19:56:18.028Z,94341.56
2023-01-17T19:58:46.073Z,94342.84
2023-01-17T20:01:18.124Z,94341.50
2023-01-17T20:03:45.835Z,94338.31
2023-01-17T20:06:14.560Z,94338.03
2023-01-17T20:08:41.275Z,94331.88
2023-01-17T20:11:10.783Z,94333.69
2023-01-17T20:13:37.216Z,94332.66
2023-01-17T20:16:05.850Z,94329.44
2023-01-17T20:18:33.410Z,94335.06
2023-01-17T20:21:23.953Z,94333.53
2023-01-17T20:23:51.344Z,94333.22
2023-01-17T20:26:21.158Z,94330.03
2023-01-17T20:28:49.780Z,94337.03
2023-01-17T20:31:18.750Z,94334.91
2023-01-17T20:33:47.025Z,94335.97
2023-01-17T20:36:15.632Z,94342.28
2023-01-17T20:38:45.472Z,94333.28
2023-01-17T20:41:18.491Z,94334.41
2023-01-17T20:43:50.948Z,94336.22
2023-01-17T20:46:19.570Z,94335.63
2023-01-17T20:48:47.019Z,94333.16
2023-01-17T20:51:14.259Z,94339.06
2023-01-17T20:53:42.138Z,94339.00
2023-01-17T20:56:11.709Z,94334.72
2023-01-17T20:58:38.638Z,94332.09
2023-01-17T21:01:06.270Z,94333.44
2023-01-17T21:03:34.696Z,94336.31
2023-01-17T21:06:03.807Z,94339.19
2023-01-17T21:08:32.368Z,94336.88
2023-01-17T21:10:58.861Z,94335.00
2023-01-17T21:13:25.520Z,94333.44
2023-01-17T21:15:52.720Z,94335.81
2023-01-17T21:18:21.441Z,94340.28
2023-01-17T21:20:48.237Z,94342.09
2023-01-17T21:23:18.105Z,94341.59
2023-01-17T21:25:55.642Z,94345.31
2023-01-17T21:28:24.947Z,94346.25
2023-01-17T21:30:53.259Z,94343.44
2023-01-17T21:33:21.056Z,94348.22
2023-01-17T21:35:47.790Z,94356.44
2023-01-17T21:38:14.440Z,94353.97
2023-01-17T21:40:41.638Z,94355.63
2023-01-17T21:43:08.115Z,94349.31
2023-01-17T21:45:38.706Z,94342.94
2023-01-17T21:48:06.636Z,94342.16
2023-01-17T21:50:34.102Z,94344.81
2023-01-17T21:53:00.642Z,94350.63
2023-01-17T21:55:45.959Z,94355.63
2023-01-17T21:58:32.494Z,94355.13
2023-01-17T22:01:08.819Z,94352.91
2023-01-17T22:03:36.153Z,94348.72
2023-01-17T22:06:04.127Z,94350.59
2023-01-17T22:08:35.209Z,94346.25
2023-01-17T22:11:07.220Z,94348.19
2023-01-17T22:13:35.319Z,94351.81
2023-01-17T22:16:05.203Z,94349.41
2023-01-17T22:18:35.767Z,94347.81
2023-01-17T22:21:08.489Z,94354.72
2023-01-17T22:23:35.615Z,94357.59
2023-01-17T22:26:10.204Z,94359.34
2023-01-17T22:28:38.337Z,94357.13
2023-01-17T22:31:19.161Z,94363.75
2023-01-17T22:33:47.571Z,94353.94
2023-01-17T22:36:14.719Z,94351.13
2023-01-17T22:38:42.983Z,94355.94
2023-01-17T22:41:13.089Z,94350.03
2023-01-17T22:43:42.736Z,94348.47
2023-01-17T22:46:12.243Z,94351.84
2023-01-17T22:48:39.543Z,94352.06
2023-01-17T22:51:08.569Z,94351.81
2023-01-17T22:53:40.181Z,94348.75
2023-01-17T22:56:07.717Z,94355.63
2023-01-17T22:58:35.077Z,94340.91
2023-01-17T23:01:19.983Z,94346.75
2023-01-17T23:03:52.139Z,94344.88
2023-01-17T23:06:25.375Z,94342.50
2023-01-17T23:08:54.007Z,94347.84
2023-01-17T23:11:38.855Z,94346.31
2023-01-17T23:14:07.800Z,94345.78
2023-01-17T23:16:52.897Z,94353.78
2023-01-17T23:19:22.422Z,94345.81
2023-01-17T23:22:12.044Z,94342.00
2023-01-17T23:24:43.032Z,94345.97
2023-01-17T23:27:39.031Z,94337.19
2023-01-17T23:30:17.688Z,94341.72
2023-01-17T23:32:46.988Z,94349.22
2023-01-17T23:35:14.735Z,94343.81
2023-01-17T23:37:59.526Z,94340.41
2023-01-17T23:40:26.015Z,94337.19
2023-01-17T23:43:10.844Z,94338.25
2023-01-17T23:45:38.766Z,94334.72
2023-01-17T23:48:09.233Z,94342.44
2023-01-17T23:50:37.438Z,94345.81
2023-01-17T23:53:07.141Z,94342.97
2023-01-17T23:55:41.242Z,94344.47
2023-01-17T23:58:10.007Z,94344.53
